createdAt,value
2023-02-27T00:00:42.087Z,9.57
2023-02-27T00:03:17.181Z,7.70
2023-02-27T00:05:57.950Z,8.15
2023-02-27T00:08:36.264Z,7.35
2023-02-27T00:11:10.493Z,7.22
2023-02-27T00:13:46.531Z,6.10
2023-02-27T00:16:26.884Z,6.63
2023-02-27T00:19:07.939Z,5.65
2023-02-27T00:21:44.752Z,6.78
2023-02-27T00:24:23.214Z,6.50
2023-02-27T00:26:58.696Z,5.80
2023-02-27T00:29:40.485Z,6.60
2023-02-27T00:32:18.765Z,5.97
2023-02-27T00:34:55.951Z,6.35
2023-02-27T00:37:34.793Z,5.77
2023-02-27T00:40:13.654Z,6.57
2023-02-27T00:42:51.952Z,5.67
2023-02-27T00:45:29.133Z,6.25
2023-02-27T00:48:11.511Z,6.45
2023-02-27T00:50:46.602Z,6.40
2023-02-27T00:53:25.632Z,6.15
2023-02-27T00:58:49.229Z,5.35
2023-02-27T01:01:37.069Z,6.35
2023-02-27T01:04:15.735Z,5.47
2023-02-27T01:06:54.713Z,6.20
2023-02-27T01:09:30.698Z,4.95
2023-02-27T01:12:12.304Z,5.65
2023-02-27T01:14:49.916Z,5.00
2023-02-27T01:17:29.250Z,5.28
2023-02-27T01:20:11.100Z,6.40
2023-02-27T01:22:47.627Z,5.38
2023-02-27T01:25:23.550Z,5.00
2023-02-27T01:27:59.328Z,4.57
2023-02-27T01:30:36.350Z,4.47
2023-02-27T01:33:24.323Z,4.90
2023-02-27T01:36:06.180Z,4.75
2023-02-27T01:38:45.615Z,4.28
2023-02-27T01:41:23.577Z,4.47
2023-02-27T01:44:00.039Z,4.43
2023-02-27T01:46:36.297Z,4.60
2023-02-27T01:49:15.509Z,5.78
2023-02-27T01:51:54.524Z,4.78
2023-02-27T01:57:48.032Z,5.13
2023-02-27T02:06:58.933Z,5.20
2023-02-27T02:09:50.098Z,5.20
2023-02-27T02:12:32.889Z,4.60
2023-02-27T02:15:18.991Z,5.03
2023-02-27T02:18:09.983Z,4.75
2023-02-27T02:21:17.009Z,4.75
2023-02-27T02:24:05.691Z,4.50
2023-02-27T02:27:15.392Z,4.70
2023-02-27T02:30:21.412Z,5.18
2023-02-27T02:33:23.234Z,5.60
2023-02-27T02:36:20.161Z,4.60
2023-02-27T02:38:59.458Z,4.43
2023-02-27T02:41:48.358Z,5.13
2023-02-27T02:44:29.890Z,5.75
2023-02-27T02:47:08.409Z,6.13
2023-02-27T02:49:44.592Z,5.50
2023-02-27T02:52:29.272Z,5.25
2023-02-27T02:55:07.349Z,6.43
2023-02-27T02:57:46.781Z,4.75
2023-02-27T03:00:29.172Z,5.55
2023-02-27T03:03:09.327Z,6.40
2023-02-27T03:05:46.420Z,6.10
2023-02-27T03:08:23.314Z,4.90
2023-02-27T03:11:01.303Z,4.90
2023-02-27T03:13:35.505Z,5.45
2023-02-27T03:16:19.503Z,3.70
2023-02-27T03:18:57.462Z,3.92
2023-02-27T03:21:37.616Z,3.90
2023-02-27T03:24:14.045Z,4.00
2023-02-27T03:26:49.514Z,3.58
2023-02-27T03:32:09.566Z,3.00
2023-02-27T03:34:44.465Z,3.95
2023-02-27T03:37:29.266Z,3.30
2023-02-27T03:40:07.245Z,2.97
2023-02-27T03:42:45.596Z,3.05
2023-02-27T03:45:45.932Z,3.33
2023-02-27T03:48:27.949Z,2.85
2023-02-27T03:51:03.475Z,3.10
2023-02-27T03:53:41.546Z,2.75
2023-02-27T03:56:21.718Z,2.80
2023-02-27T03:58:59.725Z,2.70
2023-02-27T04:01:46.726Z,3.00
2023-02-27T04:04:28.908Z,3.97
2023-02-27T04:07:33.088Z,3.13
2023-02-27T04:10:09.706Z,2.72
2023-02-27T04:13:02.930Z,3.40
2023-02-27T04:15:43.392Z,3.20
2023-02-27T04:18:22.912Z,3.22
2023-02-27T04:21:03.563Z,3.30
2023-02-27T04:23:41.061Z,3.20
2023-02-27T04:26:22.869Z,3.55
2023-02-27T04:34:36.610Z,2.73
2023-02-27T04:37:15.253Z,2.95
2023-02-27T04:39:53.666Z,3.00
2023-02-27T04:48:17.327Z,3.13
2023-02-27T04:51:04.580Z,4.10
2023-02-27T04:53:47.575Z,3.15
2023-02-27T04:59:28.524Z,3.60
2023-02-27T05:05:03.196Z,3.88
2023-02-27T05:13:59.143Z,3.67
2023-02-27T05:17:00.694Z,3.40
2023-02-27T05:19:58.740Z,3.85
2023-02-27T05:22:37.660Z,3.90
2023-02-27T05:25:15.029Z,4.05
2023-02-27T05:27:53.801Z,3.80
2023-02-27T05:30:37.010Z,4.20
2023-02-27T05:33:15.258Z,4.20
2023-02-27T05:35:58.359Z,3.70
2023-02-27T05:38:39.641Z,4.15
2023-02-27T05:41:20.288Z,4.47
2023-02-27T05:43:58.464Z,4.55
2023-02-27T05:46:34.279Z,3.90
2023-02-27T05:49:29.575Z,3.88
2023-02-27T05:52:13.093Z,4.15
2023-02-27T05:54:47.400Z,4.60
2023-02-27T05:57:30.119Z,3.80
2023-02-27T06:00:10.803Z,3.53
2023-02-27T06:02:48.765Z,4.45
2023-02-27T06:05:27.368Z,3.17
2023-02-27T06:10:52.329Z,3.03
2023-02-27T06:13:29.761Z,3.40
2023-02-27T06:16:11.042Z,3.80
2023-02-27T06:18:50.863Z,5.63
2023-02-27T06:21:31.456Z,4.85
2023-02-27T06:24:05.362Z,5.28
2023-02-27T06:26:44.347Z,5.33
2023-02-27T06:29:20.984Z,4.68
2023-02-27T06:31:57.427Z,4.05
2023-02-27T06:34:34.532Z,4.60
2023-02-27T06:37:10.540Z,3.77
2023-02-27T06:39:48.621Z,3.35
2023-02-27T06:42:27.126Z,3.55
2023-02-27T06:45:20.607Z,5.18
2023-02-27T06:47:58.424Z,3.83
2023-02-27T06:50:36.253Z,4.38
2023-02-27T06:53:15.407Z,3.63
2023-02-27T06:55:53.223Z,3.80
2023-02-27T06:58:33.244Z,4.30
2023-02-27T07:01:16.799Z,4.18
2023-02-27T07:04:03.746Z,3.75
2023-02-27T07:07:34.674Z,3.35
2023-02-27T07:09:36.736Z,3.73
2023-02-27T07:12:23.627Z,4.40
2023-02-27T07:15:04.513Z,4.28
2023-02-27T07:17:42.572Z,4.10
2023-02-27T07:20:27.921Z,3.78
2023-02-27T07:23:03.485Z,3.50
2023-02-27T07:25:40.983Z,4.05
2023-02-27T07:28:17.262Z,3.30
2023-02-27T07:30:59.190Z,4.70
2023-02-27T07:33:35.376Z,4.53
2023-02-27T07:36:16.431Z,3.92
2023-02-27T07:38:52.868Z,3.43
2023-02-27T07:41:30.913Z,3.25
2023-02-27T07:44:09.679Z,3.75
2023-02-27T07:49:26.015Z,3.53
2023-02-27T07:52:04.916Z,4.13
2023-02-27T07:54:40.733Z,3.53
2023-02-27T07:57:16.898Z,3.57
2023-02-27T07:59:52.561Z,4.30
2023-02-27T08:02:33.129Z,4.60
2023-02-27T08:05:13.755Z,4.60
2023-02-27T08:07:51.210Z,4.30
2023-02-27T08:10:30.770Z,3.72
2023-02-27T08:13:04.688Z,4.68
2023-02-27T08:15:42.972Z,4.35
2023-02-27T08:18:25.629Z,4.85
2023-02-27T08:21:07.508Z,4.53
2023-02-27T08:23:45.057Z,4.05
2023-02-27T08:26:20.696Z,3.42
2023-02-27T08:28:58.362Z,3.65
2023-02-27T08:31:38.096Z,3.20
2023-02-27T08:34:17.989Z,3.53
2023-02-27T08:36:56.170Z,4.38
2023-02-27T08:39:37.712Z,3.13
2023-02-27T08:42:11.677Z,3.30
2023-02-27T08:44:51.011Z,2.97
2023-02-27T08:47:29.001Z,2.83
2023-02-27T08:50:09.987Z,4.13
2023-02-27T08:52:45.660Z,3.28
2023-02-27T08:55:21.924Z,4.15
2023-02-27T08:57:57.557Z,3.15
2023-02-27T09:00:32.849Z,4.53
2023-02-27T09:03:08.559Z,4.20
2023-02-27T09:05:46.963Z,4.10
2023-02-27T09:08:24.365Z,3.10
2023-02-27T09:11:00.711Z,4.55
2023-02-27T09:13:38.139Z,4.25
2023-02-27T09:16:14.483Z,4.23
2023-02-27T09:18:51.814Z,4.10
2023-02-27T09:21:34.842Z,3.55
2023-02-27T09:24:19.113Z,4.40
2023-02-27T09:26:57.585Z,4.72
2023-02-27T09:29:34.268Z,3.87
2023-02-27T09:32:13.433Z,4.80
2023-02-27T09:34:52.588Z,4.43
2023-02-27T09:37:32.740Z,4.35
2023-02-27T09:40:09.826Z,3.73
2023-02-27T09:42:52.460Z,3.45
2023-02-27T09:45:31.008Z,3.63
2023-02-27T09:48:10.183Z,3.30
2023-02-27T09:50:49.825Z,15.90
2023-02-27T09:53:35.950Z,3.70
2023-02-27T09:56:17.313Z,3.50
2023-02-27T09:58:57.738Z,2.87
2023-02-27T10:01:31.603Z,3.30
2023-02-27T10:04:36.214Z,3.27
2023-02-27T10:07:33.307Z,3.90
2023-02-27T10:13:09.905Z,3.65
2023-02-27T10:18:54.248Z,3.80
2023-02-27T10:21:45.448Z,4.07
2023-02-27T10:24:26.958Z,4.93
2023-02-27T10:29:58.406Z,3.88
2023-02-27T10:35:38.798Z,3.00
2023-02-27T10:41:25.510Z,4.60
2023-02-27T10:44:07.607Z,4.95
2023-02-27T10:46:51.799Z,4.25
2023-02-27T10:49:30.842Z,3.67
2023-02-27T10:52:15.434Z,3.55
2023-02-27T10:54:54.508Z,4.90
2023-02-27T10:57:37.289Z,3.70
2023-02-27T11:00:30.507Z,3.55
2023-02-27T11:03:10.429Z,6.25
2023-02-27T11:05:52.317Z,2.87
2023-02-27T11:08:27.585Z,2.50
2023-02-27T11:11:05.295Z,3.45
2023-02-27T11:13:42.057Z,2.97
2023-02-27T11:16:34.346Z,2.88
2023-02-27T11:19:18.479Z,1.80
2023-02-27T11:22:07.333Z,2.45
2023-02-27T11:24:47.011Z,2.97
2023-02-27T11:27:27.241Z,2.47
2023-02-27T11:30:04.296Z,4.00
2023-02-27T11:32:41.153Z,1.70
2023-02-27T11:35:28.433Z,2.30
2023-02-27T11:38:08.348Z,2.55
2023-02-27T11:40:53.182Z,1.88
2023-02-27T11:43:29.918Z,2.30
2023-02-27T11:46:40.670Z,2.22
2023-02-27T11:49:11.734Z,2.40
2023-02-27T11:51:56.417Z,2.00
2023-02-27T11:54:39.361Z,2.25
2023-02-27T12:00:21.663Z,3.67
2023-02-27T12:03:02.673Z,3.97
2023-02-27T12:05:54.674Z,3.42
2023-02-27T12:08:36.420Z,3.10
2023-02-27T12:11:21.978Z,3.17
2023-02-27T12:14:04.052Z,3.25
2023-02-27T12:16:44.957Z,3.42
2023-02-27T12:19:23.530Z,3.90
2023-02-27T12:22:01.948Z,5.32
2023-02-27T12:24:45.530Z,3.30
2023-02-27T12:27:25.291Z,3.80
2023-02-27T12:30:04.612Z,4.65
2023-02-27T12:32:43.555Z,4.40
2023-02-27T12:35:32.098Z,3.67
2023-02-27T12:38:08.964Z,5.60
2023-02-27T12:40:48.634Z,5.60
2023-02-27T12:43:34.486Z,6.20
2023-02-27T12:46:24.289Z,5.80
2023-02-27T12:49:18.433Z,5.32
2023-02-27T12:52:10.453Z,5.27
2023-02-27T12:54:54.711Z,6.15
2023-02-27T12:57:28.776Z,7.03
2023-02-27T13:00:30.642Z,9.45
2023-02-27T13:03:08.699Z,7.70
2023-02-27T13:05:47.005Z,8.17
2023-02-27T13:08:43.503Z,3.63
2023-02-27T13:11:30.169Z,3.83
2023-02-27T14:19:57.409Z,5.65
2023-02-27T14:22:49.475Z,5.93
2023-02-27T14:31:32.568Z,5.70
2023-02-27T14:37:23.818Z,13.45
2023-02-27T16:18:52.353Z,51.05
2023-02-27T16:21:46.804Z,18.87
2023-02-27T16:24:39.118Z,10.80
2023-02-27T16:33:23.681Z,8.20
2023-02-27T16:36:24.428Z,9.33
2023-02-27T16:39:06.484Z,12.45
2023-02-27T16:44:15.941Z,12.65
2023-02-27T16:46:52.995Z,21.45
2023-02-27T16:49:37.328Z,21.30
2023-02-27T16:52:10.394Z,23.38
2023-02-27T16:54:48.886Z,28.25
2023-02-27T16:57:28.173Z,21.77
2023-02-27T17:00:06.243Z,37.03
2023-02-27T17:02:44.994Z,76.82
2023-02-27T17:05:19.760Z,68.60
2023-02-27T17:08:01.206Z,57.83
2023-02-27T17:10:53.195Z,44.00
2023-02-27T17:13:37.684Z,30.73
2023-02-27T17:16:13.262Z,24.70
2023-02-27T17:18:48.788Z,18.75
2023-02-27T17:21:23.883Z,18.05
2023-02-27T17:24:03.288Z,17.33
2023-02-27T17:26:41.450Z,23.10
2023-02-27T17:29:17.081Z,23.17
2023-02-27T17:31:54.069Z,31.27
2023-02-27T17:34:31.195Z,31.20
2023-02-27T17:37:10.068Z,42.75
2023-02-27T17:39:45.073Z,42.28
2023-02-27T17:42:25.979Z,34.35
2023-02-27T17:45:01.829Z,28.00
2023-02-27T17:47:37.814Z,24.60
2023-02-27T17:50:16.709Z,25.08
2023-02-27T17:52:51.892Z,23.95
2023-02-27T17:55:27.294Z,23.42
2023-02-27T17:58:06.070Z,19.57
2023-02-27T18:00:43.551Z,20.50
2023-02-27T18:03:19.315Z,19.83
2023-02-27T18:05:57.079Z,19.10
2023-02-27T18:08:31.971Z,20.30
2023-02-27T18:11:08.401Z,21.45
2023-02-27T18:13:46.515Z,25.77
2023-02-27T18:16:22.294Z,32.30
2023-02-27T18:18:58.053Z,45.95
2023-02-27T18:21:32.896Z,51.55
2023-02-27T18:24:07.731Z,63.70
2023-02-27T18:26:43.146Z,55.58
2023-02-27T18:29:20.323Z,58.53
2023-02-27T18:31:56.101Z,56.80
2023-02-27T18:34:30.623Z,52.97
2023-02-27T18:37:05.785Z,45.97
2023-02-27T18:39:42.665Z,47.17
2023-02-27T18:42:18.236Z,45.42
2023-02-27T18:44:57.849Z,42.28
2023-02-27T18:47:33.684Z,40.22
2023-02-27T18:50:11.332Z,37.07
2023-02-27T18:52:47.874Z,39.00
2023-02-27T18:55:23.022Z,34.58
2023-02-27T18:58:00.930Z,32.67
2023-02-27T19:00:39.542Z,38.13
2023-02-27T19:03:15.650Z,34.90
2023-02-27T19:08:29.578Z,23.83
2023-02-27T19:11:07.329Z,32.10
2023-02-27T19:13:41.772Z,35.10
2023-02-27T19:16:22.220Z,32.93
2023-02-27T19:18:59.806Z,33.33
2023-02-27T19:21:36.571Z,40.33
2023-02-27T19:24:12.846Z,38.47
2023-02-27T19:26:47.776Z,36.20
2023-02-27T19:29:24.774Z,37.65
2023-02-27T19:32:02.481Z,32.50
2023-02-27T19:34:37.790Z,35.30
2023-02-27T19:37:13.085Z,33.20
2023-02-27T19:39:47.678Z,34.40
2023-02-27T19:42:22.899Z,30.88
2023-02-27T19:44:57.858Z,31.67
2023-02-27T19:47:35.637Z,32.83
2023-02-27T19:50:13.145Z,33.13
2023-02-27T19:52:47.828Z,32.00
2023-02-27T19:55:22.858Z,35.08
2023-02-27T19:57:57.916Z,34.03
2023-02-27T20:00:34.884Z,30.57
2023-02-27T20:03:16.632Z,32.60
2023-02-27T20:05:54.463Z,27.48
2023-02-27T20:08:30.118Z,33.20
2023-02-27T20:11:08.715Z,27.90
2023-02-27T20:13:45.340Z,31.35
2023-02-27T20:16:24.313Z,32.50
2023-02-27T20:19:04.239Z,30.27
2023-02-27T20:21:40.679Z,33.33
2023-02-27T20:24:19.028Z,32.80
2023-02-27T20:26:59.343Z,31.65
2023-02-27T20:29:36.327Z,29.60
2023-02-27T20:32:12.166Z,26.63
2023-02-27T20:34:51.386Z,28.70
2023-02-27T20:37:29.617Z,28.88
2023-02-27T20:40:09.081Z,24.93
2023-02-27T20:42:47.509Z,29.23
2023-02-27T20:45:26.478Z,24.55
2023-02-27T20:48:01.755Z,26.02
2023-02-27T20:50:43.723Z,27.17
2023-02-27T20:53:19.800Z,23.42
2023-02-27T20:55:57.863Z,23.97
2023-02-27T20:58:33.810Z,20.50
2023-02-27T21:01:13.758Z,23.20
2023-02-27T21:03:51.097Z,26.08
2023-02-27T21:06:33.904Z,21.73
2023-02-27T21:09:12.440Z,22.55
2023-02-27T21:11:52.198Z,23.15
2023-02-27T21:14:30.850Z,24.75
2023-02-27T21:17:08.824Z,24.13
2023-02-27T21:19:41.946Z,25.23
2023-02-27T21:22:22.118Z,26.98
2023-02-27T21:25:02.297Z,26.88
2023-02-27T21:27:38.026Z,26.23
2023-02-27T21:30:19.353Z,23.00
2023-02-27T21:32:59.925Z,27.05
2023-02-27T21:35:33.601Z,25.95
2023-02-27T21:38:17.613Z,26.48
2023-02-27T21:40:53.986Z,26.45
2023-02-27T21:43:32.358Z,27.60
2023-02-27T21:46:09.006Z,31.90
2023-02-27T21:48:47.822Z,27.35
2023-02-27T21:51:38.292Z,29.00
2023-02-27T21:54:20.262Z,32.47
2023-02-27T21:56:55.130Z,32.60
2023-02-27T21:59:31.814Z,38.42
2023-02-27T22:02:07.399Z,42.17
2023-02-27T22:04:47.437Z,41.38
2023-02-27T22:07:22.739Z,39.60
2023-02-27T22:10:09.642Z,43.30
2023-02-27T22:12:45.179Z,44.72
2023-02-27T22:15:24.326Z,46.70
2023-02-27T22:18:11.450Z,45.17
2023-02-27T22:20:47.921Z,37.80
2023-02-27T22:26:22.388Z,42.50
2023-02-27T22:29:01.430Z,45.38
2023-02-27T22:34:39.392Z,46.35
2023-02-27T22:37:20.478Z,39.65
2023-02-27T22:46:26.639Z,39.37
2023-02-27T22:49:09.203Z,38.57
2023-02-27T22:51:50.535Z,34.13
2023-02-27T22:54:27.738Z,42.20
2023-02-27T23:06:23.469Z,47.22
2023-02-27T23:09:01.724Z,39.65
2023-02-27T23:11:43.032Z,50.15
2023-02-27T23:14:19.325Z,45.78
2023-02-27T23:19:41.237Z,42.33
2023-02-27T23:22:19.686Z,50.57
2023-02-27T23:24:56.557Z,45.60
2023-02-27T23:27:33.323Z,47.15
2023-02-27T23:30:18.568Z,45.60
2023-02-27T23:32:56.153Z,42.22
2023-02-27T23:35:32.085Z,48.38
2023-02-27T23:38:13.053Z,50.63
2023-02-27T23:40:50.760Z,49.20
2023-02-27T23:46:40.924Z,54.63
2023-02-27T23:49:19.490Z,46.07
2023-02-27T23:51:58.186Z,54.40
2023-02-27T23:54:38.462Z,50.45
2023-02-27T23:57:16.360Z,53.15
2023-02-27T23:59:54.338Z,46.53
